Santa Cruz, Brazil
Current Conditions -  °F | °C
As of 6:00 AM on Thursday 23 Oct 2014 (Local Time) from SBNT Reporting Station
Broken Clouds Broken Clouds  
Wind Chill: 73°   Ceiling: 10000
Heat Index: 73°   Visibility: 6mi
Dew Point: 68°   Wind: 6mph
Humidity: 83%   Direction: 180°S
Pressure: 29.97"   Gusts: NA
Location:  6.23°S, 36.02°W
Report Text: SBNT 230900Z 18005KT 9999 FEW015 SCT020 BKN100 23/20 Q1015
Loading
Personal Weather Stations






























Interactive Weather Map
Tropical Storm Tracking
New forecast layout! Learn more

10-Day Weather Forecast

Advertisements
Track Severe Weather on mobile